Time;durP1;ratioP1;P1;durP2;ratioP2;P2;SDS_P1;SDS_P2;PMS_P1;PMS_P2;Temp;Humidity;BMP_temperature;BMP_pressure;BME280_temperature;BME280_humidity;BME280_pressure;Samples;Min_cycle;Max_cycle;Signal;HPM_P1;HPM_P2
2021/04/25 00:01:24;;;;;;;6.07;1.90;;;5.80;99.90;;;;;;5094477;28;20023;-74
2021/04/25 00:03:49;;;;;;;9.98;2.67;;;5.80;99.90;;;;;;5094442;28;20046;-74
2021/04/25 00:06:15;;;;;;;9.80;2.05;;;5.70;99.90;;;;;;5094325;28;20048;-73
2021/04/25 00:08:40;;;;;;;7.82;2.38;;;5.70;99.90;;;;;;5095769;28;20035;-73
2021/04/25 00:11:06;;;;;;;5.25;2.00;;;5.60;99.90;;;;;;5098512;28;20031;-74
2021/04/25 00:13:32;;;;;;;7.45;2.72;;;5.50;99.90;;;;;;5098035;28;20115;-73
2021/04/25 00:15:58;;;;;;;8.95;2.10;;;5.40;99.90;;;;;;5080757;28;20036;-74
2021/04/25 00:18:23;;;;;;;6.00;1.90;;;5.30;99.90;;;;;;5098146;28;20039;-75
2021/04/25 00:20:50;;;;;;;5.50;2.05;;;5.20;99.90;;;;;;5079661;28;20119;-73
2021/04/25 00:23:16;;;;;;;11.00;2.25;;;5.10;99.90;;;;;;5079881;28;20028;-74
2021/04/25 00:25:41;;;;;;;9.18;2.42;;;5.00;99.90;;;;;;5079499;28;20388;-74
2021/04/25 00:28:07;;;;;;;7.80;2.58;;;5.00;99.90;;;;;;5098249;28;20032;-74
2021/04/25 00:30:33;;;;;;;9.40;2.25;;;5.00;99.90;;;;;;5097270;28;20102;-74
2021/04/25 00:32:58;;;;;;;6.50;2.10;;;5.00;99.90;;;;;;5097017;28;20030;-74
2021/04/25 00:35:24;;;;;;;6.55;1.40;;;5.10;99.90;;;;;;5097313;28;20499;-74
2021/04/25 00:37:49;;;;;;;8.80;1.88;;;5.10;99.90;;;;;;5096899;28;20039;-74
2021/04/25 00:40:18;;;;;;;6.22;2.10;;;5.10;99.90;;;;;;5097435;28;20118;-74
2021/04/25 00:42:44;;;;;;;7.60;1.95;;;5.20;99.90;;;;;;5097668;28;20435;-74
2021/04/25 00:45:13;;;;;;;7.93;1.73;;;5.20;99.90;;;;;;5098015;28;20115;-75
2021/04/25 00:47:40;;;;;;;8.88;2.28;;;5.30;99.90;;;;;;5079301;28;20119;-75
2021/04/25 00:50:07;;;;;;;9.90;2.25;;;5.30;99.90;;;;;;5097663;28;20020;-74
2021/04/25 00:52:37;;;;;;;8.32;1.95;;;5.40;99.90;;;;;;5097410;28;20020;-74
2021/04/25 00:55:07;;;;;;;4.63;1.55;;;5.50;99.90;;;;;;5105688;22;20048;-74
2021/04/25 00:57:34;;;;;;;8.20;2.05;;;5.60;99.90;;;;;;5079843;28;20040;-74
2021/04/25 01:00:00;;;;;;;8.20;2.25;;;5.60;99.90;;;;;;5079892;28;20028;-76
2021/04/25 01:02:27;;;;;;;9.88;1.52;;;5.70;99.90;;;;;;5093028;22;20087;-75
2021/04/25 01:04:53;;;;;;;3.15;1.60;;;5.80;99.90;;;;;;5098179;28;20027;-75
2021/04/25 01:07:19;;;;;;;5.50;1.20;;;5.80;99.90;;;;;;5108103;28;20024;-75
2021/04/25 01:09:44;;;;;;;6.53;1.60;;;5.90;99.90;;;;;;5099519;28;20034;-74
2021/04/25 01:12:10;;;;;;;5.75;1.52;;;5.90;99.90;;;;;;5118777;28;20024;-74
2021/04/25 01:14:36;;;;;;;5.47;1.55;;;6.10;99.90;;;;;;5118453;28;20023;-74
2021/04/25 01:17:02;;;;;;;5.50;1.13;;;6.10;99.90;;;;;;5107614;28;20031;-74
2021/04/25 01:19:27;;;;;;;7.03;1.00;;;6.10;99.90;;;;;;5095028;28;20021;-73
2021/04/25 01:21:56;;;;;;;7.22;1.85;;;6.10;99.90;;;;;;5097584;28;20545;-75
2021/04/25 01:24:21;;;;;;;5.38;1.55;;;6.10;99.90;;;;;;5097581;28;20051;-74
2021/04/25 01:26:48;;;;;;;8.30;1.85;;;6.20;99.90;;;;;;5097820;28;20036;-73
2021/04/25 01:29:13;;;;;;;5.40;1.35;;;6.20;99.90;;;;;;5096986;28;20026;-75
2021/04/25 01:31:39;;;;;;;7.53;1.67;;;6.20;99.90;;;;;;5099325;28;20023;-76
2021/04/25 01:34:05;;;;;;;9.45;2.13;;;6.20;99.90;;;;;;5100108;28;20016;-73
2021/04/25 01:36:30;;;;;;;5.18;1.70;;;6.10;99.90;;;;;;5095968;28;20020;-75
2021/04/25 01:38:56;;;;;;;9.85;1.23;;;6.10;99.90;;;;;;5097129;28;20024;-73
2021/04/25 01:41:21;;;;;;;6.60;1.23;;;6.10;99.90;;;;;;5097597;28;20012;-73
2021/04/25 01:43:47;;;;;;;10.90;2.22;;;6.00;99.90;;;;;;5096189;28;20068;-74
2021/04/25 01:46:15;;;;;;;4.68;1.60;;;6.00;99.90;;;;;;5098935;28;20377;-74
2021/04/25 01:48:42;;;;;;;5.35;1.20;;;5.90;99.90;;;;;;5099095;28;20059;-73
2021/04/25 01:51:08;;;;;;;5.65;1.52;;;5.90;99.90;;;;;;5095925;28;20469;-73
2021/04/25 01:53:34;;;;;;;6.20;1.45;;;5.90;99.90;;;;;;5097278;28;20137;-74
2021/04/25 01:56:01;;;;;;;5.63;1.73;;;5.90;99.90;;;;;;5101467;28;20122;-74
2021/04/25 01:58:26;;;;;;;3.53;1.02;;;5.90;99.90;;;;;;5149002;22;20507;-73
2021/04/25 02:00:52;;;;;;;7.35;2.00;;;5.90;99.90;;;;;;5096845;28;20031;-74
2021/04/25 02:03:18;;;;;;;5.63;1.27;;;5.90;99.90;;;;;;5096875;28;20020;-73
2021/04/25 02:08:13;;;;;;;4.18;1.25;;;5.80;99.90;;;;;;5095643;28;20045;-73
2021/04/25 02:10:39;;;;;;;7.50;1.30;;;5.80;99.90;;;;;;5096411;28;20479;-73
2021/04/25 02:13:06;;;;;;;6.97;1.50;;;5.80;99.90;;;;;;5078258;28;20016;-74
2021/04/25 02:15:31;;;;;;;5.65;1.20;;;5.80;99.90;;;;;;5109164;22;20040;-75
2021/04/25 02:17:57;;;;;;;8.70;1.70;;;5.80;99.90;;;;;;5078207;28;20046;-74
2021/04/25 02:20:24;;;;;;;6.57;1.30;;;5.80;99.90;;;;;;5096985;28;20028;-75
2021/04/25 02:22:51;;;;;;;4.70;0.90;;;5.80;99.90;;;;;;5096321;28;20032;-74
2021/04/25 02:25:18;;;;;;;6.43;1.27;;;5.80;99.90;;;;;;5132176;22;20048;-73
2021/04/25 02:27:44;;;;;;;5.85;1.10;;;5.80;99.90;;;;;;5108850;22;20438;-74
2021/04/25 02:30:19;;;;;;;7.45;1.50;;;5.90;99.90;;;;;;5096599;28;20047;-74
2021/04/25 02:32:45;;;;;;;4.97;1.17;;;5.90;99.90;;;;;;5078203;28;20034;-75
2021/04/25 02:35:12;;;;;;;6.22;1.25;;;5.90;99.90;;;;;;5095871;28;20023;-75
2021/04/25 02:37:39;;;;;;;3.05;1.02;;;5.90;99.90;;;;;;5097880;22;20482;-74
2021/04/25 02:40:09;;;;;;;3.92;1.05;;;5.90;99.90;;;;;;5037945;28;20023;-74
2021/04/25 02:42:35;;;;;;;6.25;1.95;;;5.90;99.90;;;;;;5054471;28;20553;-74
2021/04/25 02:45:01;;;;;;;2.55;0.90;;;6.00;99.90;;;;;;5055469;28;20095;-74
2021/04/25 02:47:27;;;;;;;3.30;1.15;;;6.00;99.90;;;;;;5055372;28;20481;-73
2021/04/25 02:49:52;;;;;;;4.07;1.13;;;6.00;99.90;;;;;;5056657;28;20025;-75
2021/04/25 02:52:18;;;;;;;5.47;1.17;;;6.10;99.90;;;;;;5055362;28;20474;-74
2021/04/25 02:54:43;;;;;;;2.42;0.57;;;6.00;99.90;;;;;;5055379;28;20023;-74
2021/04/25 02:57:09;;;;;;;7.93;1.48;;;6.10;99.90;;;;;;5053578;28;20458;-74
2021/04/25 02:59:35;;;;;;;7.07;0.73;;;6.10;99.90;;;;;;5082047;23;20040;-74
2021/04/25 03:02:00;;;;;;;4.82;0.77;;;6.10;99.90;;;;;;5057544;28;20503;-74
2021/04/25 03:04:26;;;;;;;3.42;0.70;;;6.10;99.90;;;;;;5075607;28;20028;-74
2021/04/25 03:06:51;;;;;;;3.67;0.80;;;6.10;99.90;;;;;;5084171;28;20027;-73
2021/04/25 03:09:17;;;;;;;6.35;1.10;;;6.10;99.90;;;;;;5095419;28;20028;-74
2021/04/25 03:11:42;;;;;;;2.85;0.60;;;6.10;99.90;;;;;;5094991;28;20024;-75
2021/04/25 03:14:08;;;;;;;2.95;0.63;;;6.10;99.90;;;;;;5095220;28;20025;-74
2021/04/25 03:16:34;;;;;;;2.60;0.43;;;6.10;99.90;;;;;;5087810;28;20021;-75
2021/04/25 03:18:59;;;;;;;4.90;0.93;;;6.10;99.90;;;;;;5093350;22;20043;-74
2021/04/25 03:21:25;;;;;;;3.63;0.63;;;6.10;99.90;;;;;;5076129;28;20024;-73
2021/04/25 03:23:50;;;;;;;6.72;0.70;;;6.10;99.90;;;;;;5094917;28;20027;-74
2021/04/25 03:26:16;;;;;;;5.55;0.70;;;6.10;99.90;;;;;;5094174;28;20488;-74
2021/04/25 03:28:41;;;;;;;6.05;0.73;;;6.10;99.90;;;;;;5094117;28;20043;-74
2021/04/25 03:31:07;;;;;;;4.25;0.73;;;6.20;99.90;;;;;;5094689;28;20028;-74
2021/04/25 03:33:33;;;;;;;7.55;0.65;;;6.20;99.90;;;;;;5094385;28;20032;-74
2021/04/25 03:35:58;;;;;;;5.03;0.50;;;6.20;99.90;;;;;;5094545;28;20016;-74
2021/04/25 03:38:25;;;;;;;4.88;0.55;;;6.20;99.90;;;;;;5076078;28;20027;-74
2021/04/25 03:40:52;;;;;;;3.08;0.45;;;6.10;99.90;;;;;;5076189;28;20098;-74
2021/04/25 03:43:19;;;;;;;3.97;0.52;;;6.10;99.90;;;;;;5075393;28;20024;-74
2021/04/25 03:45:45;;;;;;;4.03;0.73;;;6.20;99.90;;;;;;5076370;28;20023;-74
2021/04/25 03:48:11;;;;;;;21.00;0.95;;;6.20;99.90;;;;;;5093768;28;20435;-74
2021/04/25 03:50:37;;;;;;;4.00;0.63;;;6.20;99.90;;;;;;5094390;28;20024;-74
2021/04/25 03:53:03;;;;;;;3.25;0.35;;;6.20;99.90;;;;;;5094211;28;20047;-74
2021/04/25 03:55:28;;;;;;;5.47;0.40;;;6.20;99.90;;;;;;5076099;28;20024;-74
2021/04/25 03:57:54;;;;;;;5.35;0.30;;;6.10;99.90;;;;;;5093582;28;20552;-74
2021/04/25 04:00:20;;;;;;;2.30;0.50;;;6.20;99.90;;;;;;5093816;28;20024;-73
2021/04/25 04:02:46;;;;;;;2.95;0.30;;;6.20;99.90;;;;;;5076152;28;20024;-74
2021/04/25 04:05:13;;;;;;;1.48;0.10;;;6.20;99.90;;;;;;5076375;28;20027;-73
2021/04/25 04:07:39;;;;;;;6.32;0.30;;;6.20;98.80;;;;;;5075374;28;20377;-75
2021/04/25 04:10:05;;;;;;;2.65;0.10;;;6.30;97.60;;;;;;5094178;28;20519;-74
2021/04/25 04:12:31;;;;;;;5.18;0.25;;;6.30;97.80;;;;;;5094213;28;20031;-73
2021/04/25 04:14:56;;;;;;;3.00;0.00;;;6.20;97.70;;;;;;5094135;28;20024;-73
2021/04/25 04:17:22;;;;;;;2.00;0.13;;;6.30;95.80;;;;;;5075560;28;20059;-75
2021/04/25 04:19:47;;;;;;;0.55;0.00;;;6.30;96.40;;;;;;5093991;28;20035;-74
2021/04/25 04:22:13;;;;;;;3.08;0.15;;;6.30;95.70;;;;;;5075718;28;20073;-72
2021/04/25 04:24:39;;;;;;;3.58;0.08;;;6.30;94.50;;;;;;5093813;28;20028;-73
2021/04/25 04:27:04;;;;;;;2.85;0.10;;;6.40;95.10;;;;;;5075389;28;20073;-74
2021/04/25 04:29:30;;;;;;;6.72;0.30;;;6.30;95.20;;;;;;5093722;28;20503;-73
2021/04/25 04:31:56;;;;;;;4.95;0.73;;;6.20;93.80;;;;;;5093474;28;20024;-73
2021/04/25 04:34:22;;;;;;;2.83;0.57;;;6.30;93.70;;;;;;5094248;28;20381;-74
2021/04/25 04:36:47;;;;;;;5.00;0.20;;;6.20;92.70;;;;;;5074980;28;20031;-73
2021/04/25 04:39:14;;;;;;;3.15;0.08;;;6.20;93.00;;;;;;5093804;28;20043;-76
2021/04/25 04:41:39;;;;;;;4.88;0.03;;;6.20;93.30;;;;;;5093708;28;20024;-74
2021/04/25 04:44:05;;;;;;;3.83;0.40;;;6.20;93.40;;;;;;5093487;28;20020;-75
2021/04/25 04:46:31;;;;;;;9.95;1.17;;;6.20;93.50;;;;;;5075057;28;20095;-74
2021/04/25 04:48:58;;;;;;;4.53;0.40;;;6.10;93.10;;;;;;5075874;28;20478;-74
2021/04/25 04:51:23;;;;;;;3.30;0.35;;;6.20;93.60;;;;;;5085875;22;20107;-76
2021/04/25 04:53:49;;;;;;;1.63;0.10;;;8.10;95.00;;;;;;5074493;28;20453;-74
2021/04/25 04:56:14;;;;;;;2.58;0.17;;;6.10;94.30;;;;;;5094128;28;20098;-74
2021/04/25 04:58:40;;;;;;;4.03;0.20;;;6.20;94.20;;;;;;5091071;22;20049;-73
2021/04/25 05:01:05;;;;;;;7.72;0.20;;;6.20;93.80;;;;;;5076029;22;20036;-75
2021/04/25 05:03:31;;;;;;;3.10;0.03;;;6.20;94.10;;;;;;5079458;28;20024;-74
2021/04/25 05:05:57;;;;;;;0.25;0.10;;;6.30;94.10;;;;;;5078765;28;20016;-73
2021/04/25 05:08:22;;;;;;;1.42;0.20;;;6.30;94.60;;;;;;5097592;28;20106;-74
2021/04/25 05:10:48;;;;;;;4.13;0.10;;;6.20;94.40;;;;;;5079379;28;20502;-74
2021/04/25 05:13:14;;;;;;;2.10;0.10;;;6.30;94.20;;;;;;5097359;28;20073;-73
2021/04/25 05:15:40;;;;;;;4.53;0.20;;;6.30;93.70;;;;;;5096714;28;20027;-73
2021/04/25 05:18:07;;;;;;;2.63;0.00;;;6.30;92.10;;;;;;5096927;28;20111;-74
2021/04/25 05:20:32;;;;;;;2.25;0.03;;;6.30;92.10;;;;;;5097572;28;20424;-73
2021/04/25 05:22:59;;;;;;;1.10;0.32;;;6.30;92.60;;;;;;5097287;28;20059;-74
2021/04/25 05:25:25;;;;;;;4.85;0.20;;;6.40;92.60;;;;;;5097230;28;20051;-76
2021/04/25 05:27:51;;;;;;;4.97;0.50;;;6.40;91.70;;;;;;5078548;28;20115;-73
2021/04/25 05:30:17;;;;;;;2.40;0.13;;;6.40;91.70;;;;;;5112238;28;20028;-73
2021/04/25 05:32:42;;;;;;;3.30;0.25;;;6.40;91.30;;;;;;5096768;28;20020;-73
2021/04/25 05:35:08;;;;;;;4.13;0.20;;;6.40;91.40;;;;;;5096624;28;20384;-73
2021/04/25 05:37:34;;;;;;;1.80;0.10;;;6.40;91.80;;;;;;5096957;28;20077;-75
2021/04/25 05:39:59;;;;;;;8.40;0.17;;;6.40;92.60;;;;;;5078423;28;20027;-73
2021/04/25 05:42:25;;;;;;;2.28;0.30;;;6.40;92.00;;;;;;5078625;28;20051;-74
2021/04/25 05:44:51;;;;;;;2.88;0.28;;;6.50;91.30;;;;;;5097023;28;20016;-73
2021/04/25 05:47:17;;;;;;;1.55;0.47;;;6.50;91.50;;;;;;5096359;28;20475;-75
2021/04/25 05:49:43;;;;;;;2.13;0.20;;;6.50;91.20;;;;;;5112961;28;20365;-74
2021/04/25 05:52:09;;;;;;;3.65;0.20;;;6.50;91.80;;;;;;5078106;28;20035;-73
2021/04/25 05:54:35;;;;;;;4.25;0.20;;;6.60;91.70;;;;;;5097205;28;20028;-74
2021/04/25 05:57:00;;;;;;;4.05;0.57;;;6.60;90.50;;;;;;5105315;28;20107;-74
2021/04/25 05:59:26;;;;;;;2.13;0.15;;;6.70;91.50;;;;;;5092416;28;20063;-76
2021/04/25 06:01:51;;;;;;;4.43;0.13;;;6.70;91.40;;;;;;5076776;28;20511;-74
2021/04/25 06:04:17;;;;;;;3.13;0.10;;;6.70;90.90;;;;;;5081380;28;20421;-76
2021/04/25 06:06:42;;;;;;;6.65;0.30;;;6.80;90.50;;;;;;5078117;28;20089;-73
2021/04/25 06:09:08;;;;;;;0.40;0.00;;;6.80;91.20;;;;;;5077536;28;20472;-73
2021/04/25 06:11:35;;;;;;;2.72;0.10;;;6.80;90.90;;;;;;5095867;28;20463;-74
2021/04/25 06:14:04;;;;;;;4.22;0.10;;;6.90;90.80;;;;;;5096285;28;20391;-73
2021/04/25 06:16:29;;;;;;;4.93;0.10;;;6.90;90.90;;;;;;5077685;28;20012;-75
2021/04/25 06:18:55;;;;;;;6.72;0.60;;;6.90;90.90;;;;;;5095849;28;20488;-73
2021/04/25 06:21:21;;;;;;;2.15;0.35;;;6.90;90.20;;;;;;5096009;28;20102;-74
2021/04/25 06:23:47;;;;;;;6.82;0.15;;;7.00;91.10;;;;;;5096175;28;20058;-74
2021/04/25 06:26:13;;;;;;;4.32;0.60;;;7.00;91.20;;;;;;5095918;28;20028;-75
2021/04/25 06:28:38;;;;;;;4.97;0.52;;;7.10;90.70;;;;;;5100021;22;20035;-73
2021/04/25 06:31:04;;;;;;;4.00;0.20;;;7.10;91.10;;;;;;5017979;28;20049;-73
2021/04/25 06:33:30;;;;;;;2.70;0.13;;;7.20;90.80;;;;;;5035587;28;20025;-74
2021/04/25 06:35:55;;;;;;;2.95;0.55;;;7.30;91.60;;;;;;5117663;22;20035;-74
2021/04/25 06:38:21;;;;;;;4.07;0.03;;;7.40;89.70;;;;;;5114264;28;20090;-73
2021/04/25 06:40:46;;;;;;;3.30;0.10;;;7.30;87.20;;;;;;5117501;22;20060;-75
2021/04/25 06:43:12;;;;;;;4.25;0.20;;;7.40;87.20;;;;;;5097536;22;20055;-73
2021/04/25 06:45:38;;;;;;;5.35;0.20;;;9.00;87.80;;;;;;5076622;28;20031;-73
2021/04/25 06:48:04;;;;;;;0.68;0.00;;;7.50;87.00;;;;;;5094843;28;20039;-73
2021/04/25 06:50:29;;;;;;;2.08;0.20;;;7.60;86.00;;;;;;5095146;28;20413;-73
2021/04/25 06:52:55;;;;;;;1.10;0.00;;;7.60;84.70;;;;;;5095295;28;20043;-73
2021/04/25 06:55:23;;;;;;;1.90;0.00;;;7.60;85.30;;;;;;5094418;28;20027;-73
2021/04/25 06:57:50;;;;;;;4.40;0.55;;;7.70;83.70;;;;;;5095063;28;20028;-73
2021/04/25 07:00:17;;;;;;;0.95;0.00;;;7.70;82.30;;;;;;5076696;28;20024;-73
2021/04/25 07:02:43;;;;;;;4.97;0.30;;;7.80;82.50;;;;;;5095553;28;20024;-72
2021/04/25 07:05:09;;;;;;;1.42;0.20;;;7.90;83.40;;;;;;5094293;28;20028;-73
2021/04/25 07:07:35;;;;;;;4.47;0.10;;;7.90;81.40;;;;;;5076445;28;20034;-73
2021/04/25 07:10:02;;;;;;;2.15;0.00;;;7.90;79.70;;;;;;5094732;28;20039;-73
2021/04/25 07:12:28;;;;;;;3.08;0.10;;;7.90;79.50;;;;;;5076556;28;20453;-73
2021/04/25 07:14:56;;;;;;;4.65;0.10;;;7.90;77.80;;;;;;5094278;28;20016;-73
2021/04/25 07:17:22;;;;;;;1.90;0.00;;;7.80;77.30;;;;;;5093630;28;20031;-74
2021/04/25 07:19:47;;;;;;;3.65;0.10;;;7.90;78.40;;;;;;5098007;22;20452;-74
2021/04/25 07:22:16;;;;;;;1.25;0.17;;;7.90;77.20;;;;;;5074666;28;20020;-74
2021/04/25 07:24:41;;;;;;;4.07;0.15;;;7.90;78.30;;;;;;5089898;28;20024;-74
2021/04/25 07:27:07;;;;;;;5.13;0.00;;;8.00;78.30;;;;;;5094347;22;20102;-74
2021/04/25 07:29:32;;;;;;;2.58;0.65;;;8.10;77.00;;;;;;5074754;28;20028;-73
2021/04/25 07:31:58;;;;;;;5.97;0.00;;;8.10;77.60;;;;;;5104240;23;20086;-74
2021/04/25 07:34:27;;;;;;;1.70;0.17;;;8.10;77.70;;;;;;5076816;28;20436;-73
2021/04/25 07:36:53;;;;;;;0.43;0.10;;;8.30;77.00;;;;;;5108196;22;20048;-73
2021/04/25 07:39:20;;;;;;;2.95;0.43;;;8.20;75.90;;;;;;5120945;22;20480;-73
2021/04/25 07:41:46;;;;;;;2.65;0.45;;;8.30;77.40;;;;;;5107707;22;20071;-74
2021/04/25 07:44:12;;;;;;;2.65;0.20;;;8.40;77.50;;;;;;5094599;28;20077;-74
2021/04/25 07:46:37;;;;;;;4.65;0.22;;;8.50;76.10;;;;;;5095095;28;20103;-74
2021/04/25 07:49:04;;;;;;;4.82;0.28;;;8.50;75.30;;;;;;5075896;28;20024;-74
2021/04/25 07:51:30;;;;;;;5.38;0.85;;;8.50;77.30;;;;;;5076481;28;20024;-74
2021/04/25 07:53:58;;;;;;;3.55;0.10;;;8.70;76.20;;;;;;5076389;28;20484;-74
2021/04/25 07:56:23;;;;;;;6.75;0.32;;;8.80;75.20;;;;;;5094740;28;20487;-74
2021/04/25 07:58:50;;;;;;;2.28;0.00;;;8.90;73.70;;;;;;5076213;28;20020;-73
2021/04/25 08:01:15;;;;;;;5.53;0.00;;;9.00;73.60;;;;;;5094584;28;20047;-73
2021/04/25 08:03:41;;;;;;;3.95;0.15;;;9.00;71.90;;;;;;5093950;28;20059;-73
2021/04/25 08:06:06;;;;;;;4.95;0.80;;;9.00;72.60;;;;;;5076471;28;20034;-75
2021/04/25 08:08:32;;;;;;;4.90;0.35;;;9.10;71.90;;;;;;5094082;28;20054;-74
2021/04/25 08:10:58;;;;;;;5.60;0.00;;;9.20;72.50;;;;;;5094438;28;20024;-74
2021/04/25 08:13:24;;;;;;;1.90;0.10;;;9.30;71.30;;;;;;5094025;28;20022;-74
2021/04/25 08:15:50;;;;;;;3.05;0.43;;;9.30;69.70;;;;;;5094063;28;20095;-74
2021/04/25 08:18:15;;;;;;;3.47;0.00;;;9.40;69.20;;;;;;5093982;28;20028;-74
2021/04/25 08:20:41;;;;;;;4.18;0.10;;;9.30;68.70;;;;;;5094421;28;20032;-76
2021/04/25 08:23:06;;;;;;;1.35;0.10;;;9.30;68.60;;;;;;5075742;28;20031;-74
2021/04/25 08:25:32;;;;;;;5.68;0.00;;;9.30;68.50;;;;;;5075995;28;20491;-75
2021/04/25 08:27:58;;;;;;;8.48;0.00;;;9.30;67.80;;;;;;5093715;28;20108;-77
2021/04/25 08:30:23;;;;;;;2.83;0.10;;;9.30;68.60;;;;;;5078757;28;20455;-77
2021/04/25 08:32:50;;;;;;;1.90;0.20;;;9.40;68.50;;;;;;5110705;22;20131;-77
2021/04/25 08:35:18;;;;;;;2.30;0.03;;;9.40;69.20;;;;;;5101044;28;20031;-75
2021/04/25 08:37:44;;;;;;;3.50;0.28;;;9.50;67.80;;;;;;5118131;28;20107;-76
2021/04/25 08:40:11;;;;;;;2.42;0.05;;;9.60;67.30;;;;;;5098047;28;20388;-75
2021/04/25 08:42:36;;;;;;;5.65;0.35;;;9.60;67.20;;;;;;5097549;28;20035;-75
2021/04/25 08:45:03;;;;;;;7.63;0.88;;;9.70;67.30;;;;;;5097846;28;20016;-75
2021/04/25 08:47:29;;;;;;;2.70;0.00;;;9.80;67.10;;;;;;5076876;28;20024;-75
2021/04/25 08:50:00;;;;;;;5.15;0.00;;;9.80;66.20;;;;;;5076867;28;20020;-76
2021/04/25 08:52:27;;;;;;;3.85;0.10;;;9.90;66.80;;;;;;5059000;28;20063;-74
2021/04/25 08:54:53;;;;;;;3.17;0.15;;;9.90;68.40;;;;;;5076742;28;20021;-75
2021/04/25 08:57:20;;;;;;;1.85;0.00;;;10.00;67.70;;;;;;5076671;28;20440;-74
2021/04/25 08:59:45;;;;;;;3.53;0.20;;;10.10;67.10;;;;;;5089591;28;20024;-76
2021/04/25 09:02:11;;;;;;;5.55;0.63;;;10.30;66.80;;;;;;5079140;28;20019;-76
2021/04/25 09:04:37;;;;;;;4.47;0.00;;;10.30;65.00;;;;;;5079009;28;20016;-74
2021/04/25 09:07:05;;;;;;;2.15;0.10;;;10.30;64.50;;;;;;5108997;22;20024;-75
2021/04/25 09:09:43;;;;;;;2.97;0.57;;;10.20;63.80;;;;;;5096990;28;20493;-74
2021/04/25 09:12:09;;;;;;;3.88;0.57;;;10.10;65.30;;;;;;5095777;28;20050;-76
2021/04/25 09:14:38;;;;;;;2.50;0.03;;;10.10;65.20;;;;;;5096899;28;20082;-75
2021/04/25 09:17:05;;;;;;;8.55;0.30;;;10.20;64.90;;;;;;5095687;28;20016;-76
2021/04/25 09:19:48;;;;;;;2.15;0.10;;;10.20;66.40;;;;;;5097234;28;20050;-74
2021/04/25 09:22:15;;;;;;;0.63;0.10;;;10.30;63.40;;;;;;5097033;28;20020;-75
2021/04/25 09:24:40;;;;;;;1.17;0.00;;;10.40;64.80;;;;;;5095674;28;20507;-75
2021/04/25 09:27:06;;;;;;;1.92;0.00;;;10.50;62.90;;;;;;5095420;28;20020;-75
2021/04/25 09:29:52;;;;;;;6.03;0.28;;;10.50;63.90;;;;;;5099786;28;20106;-75
2021/04/25 09:32:20;;;;;;;6.32;0.95;;;10.50;61.70;;;;;;5098692;28;20024;-76
2021/04/25 09:34:45;;;;;;;6.07;0.80;;;10.60;64.80;;;;;;5096039;28;20020;-76
2021/04/25 09:37:16;;;;;;;4.40;0.00;;;10.70;64.00;;;;;;5097229;28;20026;-76
2021/04/25 09:40:07;;;;;;;3.20;0.10;;;10.90;63.50;;;;;;5094679;28;20027;-78
2021/04/25 09:42:56;;;;;;;8.30;0.10;;;11.10;62.70;;;;;;5096142;28;20112;-78
2021/04/25 09:45:24;;;;;;;5.25;0.25;;;11.20;61.10;;;;;;5096165;28;20028;-78
2021/04/25 09:47:49;;;;;;;1.45;0.00;;;11.30;61.40;;;;;;5094334;28;20024;-76
2021/04/25 09:50:20;;;;;;;2.55;0.20;;;11.30;61.30;;;;;;5096365;28;20091;-76
2021/04/25 09:52:49;;;;;;;4.57;0.17;;;11.30;62.50;;;;;;5094724;28;20077;-76
2021/04/25 09:55:16;;;;;;;;;;;11.30;61.70;;;;;;5097272;28;20024;-77
2021/04/25 09:57:42;;;;;;;1.70;0.28;;;11.20;60.10;;;;;;5095986;28;19904;-77
2021/04/25 10:00:09;;;;;;;4.85;0.32;;;11.20;62.10;;;;;;5096322;28;20358;-76
2021/04/25 10:02:55;;;;;;;1.95;0.05;;;11.20;60.90;;;;;;5094613;28;20020;-78
2021/04/25 10:05:22;;;;;;;2.53;0.00;;;11.20;62.10;;;;;;5095640;28;20020;-77
2021/04/25 10:07:47;;;;;;;8.38;0.60;;;11.20;60.40;;;;;;5093957;28;20511;-77
2021/04/25 10:10:19;;;;;;;4.35;0.20;;;11.30;62.60;;;;;;5095775;28;20024;-74
2021/04/25 10:12:48;;;;;;;6.80;0.73;;;11.50;61.80;;;;;;5095477;28;20107;-73
2021/04/25 10:15:14;;;;;;;;;;;11.50;61.10;;;;;;5096317;28;20058;-74
2021/04/25 10:17:50;;;;;;;5.30;0.45;;;11.60;60.90;;;;;;5095464;28;19912;-74
2021/04/25 10:20:18;;;;;;;7.78;0.98;;;11.70;62.10;;;;;;5094117;28;20032;-74
2021/04/25 10:22:46;;;;;;;3.17;0.05;;;11.80;62.20;;;;;;5095796;28;20031;-75
2021/04/25 10:25:18;;;;;;;5.03;0.13;;;11.80;60.40;;;;;;5095820;28;20058;-73
2021/04/25 10:27:49;;;;;;;2.58;0.20;;;11.80;59.30;;;;;;5095567;28;20090;-74
2021/04/25 10:30:16;;;;;;;3.00;0.00;;;11.90;60.50;;;;;;5093799;28;20479;-74
2021/04/25 10:32:43;;;;;;;7.15;0.85;;;12.00;59.30;;;;;;5094565;28;20020;-74
2021/04/25 10:35:23;;;;;;;4.03;0.30;;;12.10;58.50;;;;;;5093524;28;20128;-74
2021/04/25 10:37:49;;;;;;;1.30;0.00;;;12.10;58.20;;;;;;5099854;22;20127;-73
2021/04/25 10:40:25;;;;;;;6.50;0.32;;;12.00;57.40;;;;;;5107706;28;20019;-73
2021/04/25 10:43:10;;;;;;;1.95;0.20;;;12.00;59.60;;;;;;5097609;28;20502;-74
2021/04/25 10:45:55;;;;;;;2.38;0.73;;;11.90;60.30;;;;;;5101094;28;20115;-74
2021/04/25 10:48:24;;;;;;;1.55;0.00;;;11.80;59.20;;;;;;5119565;22;20044;-72
2021/04/25 10:51:16;;;;;;;3.92;0.10;;;11.90;58.80;;;;;;5075896;28;20401;-75
2021/04/25 10:53:46;;;;;;;4.78;0.10;;;12.00;59.70;;;;;;5073911;28;20029;-72
2021/04/25 10:56:15;;;;;;;2.83;0.32;;;12.10;58.40;;;;;;5068592;23;20036;-73
2021/04/25 10:58:45;;;;;;;;;;;12.20;57.80;;;;;;5073380;28;20020;-73
2021/04/25 11:03:50;;;;;;;2.28;0.10;;;12.20;58.00;;;;;;5096369;22;20112;-75
2021/04/25 11:06:25;;;;;;;4.22;0.10;;;12.30;59.40;;;;;;5094668;28;20472;-72
2021/04/25 11:08:50;;;;;;;3.10;0.00;;;12.80;56.70;;;;;;5080255;28;20028;-76
2021/04/25 11:11:49;;;;;;;2.45;0.03;;;12.50;57.10;;;;;;5094696;28;20020;-74
2021/04/25 11:14:39;;;;;;;2.65;0.10;;;12.60;56.60;;;;;;5075891;28;20077;-73
2021/04/25 11:17:30;;;;;;;1.95;0.00;;;12.90;55.80;;;;;;5094428;28;20016;-74
2021/04/25 11:19:56;;;;;;;1.63;0.00;;;12.90;53.10;;;;;;5056034;28;20052;-74
2021/04/25 11:24:54;;;;;;;2.20;0.35;;;12.70;55.40;;;;;;5093331;28;20052;-75
2021/04/25 11:27:33;;;;;;;1.75;0.00;;;12.50;56.20;;;;;;5093810;28;20434;-75
2021/04/25 11:30:03;;;;;;;1.70;0.00;;;12.60;54.60;;;;;;5093824;28;20032;-72
2021/04/25 11:32:33;;;;;;;2.25;0.13;;;12.90;55.70;;;;;;5094079;28;20016;-74
2021/04/25 11:35:07;;;;;;;2.60;0.00;;;13.40;56.00;;;;;;5093646;28;20035;-74
2021/04/25 11:37:33;;;;;;;3.67;0.57;;;13.70;52.10;;;;;;5093944;28;20031;-73
2021/04/25 11:40:02;;;;;;;1.85;0.10;;;13.60;52.10;;;;;;5075435;28;20028;-74
2021/04/25 11:42:37;;;;;;;3.50;0.10;;;14.20;53.70;;;;;;5093300;28;20028;-74
2021/04/25 11:45:25;;;;;;;2.72;0.00;;;13.60;52.80;;;;;;5073809;28;20028;-74
2021/04/25 11:47:54;;;;;;;2.45;0.17;;;14.00;51.60;;;;;;5090421;28;20444;-74
2021/04/25 11:50:20;;;;;;;1.67;0.20;;;14.50;49.80;;;;;;5093629;28;20069;-74
2021/04/25 11:52:46;;;;;;;4.40;0.45;;;14.90;49.00;;;;;;5093315;28;20020;-74
2021/04/25 11:55:15;;;;;;;6.05;0.63;;;15.40;51.40;;;;;;5075212;28;20031;-74
2021/04/25 11:57:47;;;;;;;4.43;0.30;;;15.80;49.80;;;;;;5093352;28;20404;-74
2021/04/25 12:00:14;;;;;;;2.28;0.20;;;15.50;47.50;;;;;;5093973;28;20028;-74
2021/04/25 12:02:58;;;;;;;3.33;0.00;;;15.10;48.50;;;;;;5075180;28;20023;-74
2021/04/25 12:05:27;;;;;;;7.82;0.43;;;14.70;48.00;;;;;;5092984;28;20020;-74
2021/04/25 12:08:02;;;;;;;;;;;14.80;48.90;;;;;;5075420;28;20032;-74
2021/04/25 12:10:35;;;;;;;1.08;0.10;;;15.20;49.40;;;;;;5075258;28;19912;-73
2021/04/25 12:13:10;;;;;;;5.28;0.55;;;15.80;47.80;;;;;;5093261;28;20085;-74
2021/04/25 12:15:44;;;;;;;2.78;0.20;;;15.90;49.10;;;;;;5093407;28;20028;-75
2021/04/25 12:18:13;;;;;;;2.20;0.10;;;16.30;46.30;;;;;;5093417;28;20481;-73
2021/04/25 12:20:49;;;;;;;;;;;16.30;45.80;;;;;;5094025;28;20036;-74
2021/04/25 12:23:24;;;;;;;1.25;0.00;;;16.20;46.90;;;;;;5075074;28;19999;-74
2021/04/25 12:25:50;;;;;;;2.47;0.10;;;15.80;47.20;;;;;;5093495;28;20016;-74
2021/04/25 12:28:17;;;;;;;4.30;0.10;;;15.40;47.10;;;;;;5092980;28;20032;-76
2021/04/25 12:30:45;;;;;;;2.97;0.00;;;15.30;48.30;;;;;;5093401;28;20020;-73
2021/04/25 12:33:16;;;;;;;1.50;0.28;;;15.10;47.10;;;;;;5093372;28;20031;-73
2021/04/25 12:35:48;;;;;;;1.60;0.00;;;15.00;49.30;;;;;;5093682;28;20056;-76
2021/04/25 12:38:26;;;;;;;2.05;0.00;;;15.20;48.60;;;;;;5074824;28;20027;-73
2021/04/25 12:40:55;;;;;;;7.15;0.40;;;14.90;48.60;;;;;;5093237;28;20082;-76
2021/04/25 12:43:21;;;;;;;;;;;14.90;48.60;;;;;;5075401;28;20075;-75
2021/04/25 12:45:46;;;;;;;10.40;0.88;;;14.80;47.20;;;;;;5075099;28;19904;-74
2021/04/25 12:48:37;;;;;;;3.28;0.00;;;15.10;50.40;;;;;;5074802;28;20438;-74
2021/04/25 12:51:08;;;;;;;2.47;0.00;;;15.40;49.50;;;;;;5093084;28;20043;-75
2021/04/25 12:53:43;;;;;;;6.60;0.65;;;15.70;47.00;;;;;;5074822;28;20447;-75
2021/04/25 12:56:32;;;;;;;4.78;0.13;;;15.70;47.50;;;;;;5075623;28;20016;-78
2021/04/25 12:59:02;;;;;;;1.90;0.17;;;15.50;46.80;;;;;;5075258;28;20024;-77
2021/04/25 13:01:29;;;;;;;2.33;0.32;;;15.40;46.80;;;;;;5093112;28;20024;-75
2021/04/25 13:03:55;;;;;;;7.25;0.17;;;15.20;46.40;;;;;;5093496;28;20080;-74
2021/04/25 13:06:39;;;;;;;2.83;0.20;;;14.90;46.80;;;;;;5074841;28;20049;-74